sensor_id;sensor_type;location;lat;lon;timestamp;temperature;humidity
65854;DHT22;52627;48.838;2.402;2023-08-17T00:02:12;23.18;62.75
65854;DHT22;52627;48.838;2.402;2023-08-17T00:04:40;23.18;62.80
65854;DHT22;52627;48.838;2.402;2023-08-17T00:07:08;23.19;62.88
65854;DHT22;52627;48.838;2.402;2023-08-17T00:09:35;23.20;62.90
65854;DHT22;52627;48.838;2.402;2023-08-17T00:12:03;23.21;62.93
65854;DHT22;52627;48.838;2.402;2023-08-17T00:14:32;23.21;63.02
65854;DHT22;52627;48.838;2.402;2023-08-17T00:16:59;23.22;63.08
65854;DHT22;52627;48.838;2.402;2023-08-17T00:19:27;23.22;63.13
65854;DHT22;52627;48.838;2.402;2023-08-17T00:21:54;23.22;63.27
65854;DHT22;52627;48.838;2.402;2023-08-17T00:24:22;23.20;63.37
65854;DHT22;52627;48.838;2.402;2023-08-17T00:26:50;23.19;63.45
65854;DHT22;52627;48.838;2.402;2023-08-17T00:29:17;23.17;63.51
65854;DHT22;52627;48.838;2.402;2023-08-17T00:31:44;23.16;63.60
65854;DHT22;52627;48.838;2.402;2023-08-17T00:34:12;23.17;63.67
65854;DHT22;52627;48.838;2.402;2023-08-17T00:36:39;23.16;63.70
65854;DHT22;52627;48.838;2.402;2023-08-17T00:39:07;23.15;63.84
65854;DHT22;52627;48.838;2.402;2023-08-17T00:41:34;23.11;63.92
65854;DHT22;52627;48.838;2.402;2023-08-17T00:44:02;23.07;64.10
65854;DHT22;52627;48.838;2.402;2023-08-17T00:46:29;23.00;64.18
65854;DHT22;52627;48.838;2.402;2023-08-17T00:48:57;22.96;64.28
65854;DHT22;52627;48.838;2.402;2023-08-17T00:51:26;22.94;64.36
65854;DHT22;52627;48.838;2.402;2023-08-17T00:53:54;22.93;64.40
65854;DHT22;52627;48.838;2.402;2023-08-17T00:56:26;22.92;64.41
65854;DHT22;52627;48.838;2.402;2023-08-17T00:58:54;22.95;64.49
65854;DHT22;52627;48.838;2.402;2023-08-17T01:01:22;22.94;64.54
65854;DHT22;52627;48.838;2.402;2023-08-17T01:03:50;22.95;64.60
65854;DHT22;52627;48.838;2.402;2023-08-17T01:06:18;22.95;64.61
65854;DHT22;52627;48.838;2.402;2023-08-17T01:08:46;22.96;64.69
65854;DHT22;52627;48.838;2.402;2023-08-17T01:16:52;22.92;64.81
65854;DHT22;52627;48.838;2.402;2023-08-17T01:19:46;22.91;64.85
65854;DHT22;52627;48.838;2.402;2023-08-17T01:22:15;22.92;64.87
65854;DHT22;52627;48.838;2.402;2023-08-17T01:24:49;22.91;64.91
65854;DHT22;52627;48.838;2.402;2023-08-17T01:27:17;22.92;64.97
65854;DHT22;52627;48.838;2.402;2023-08-17T01:29:44;22.93;64.99
65854;DHT22;52627;48.838;2.402;2023-08-17T01:34:50;22.92;65.09
65854;DHT22;52627;48.838;2.402;2023-08-17T01:37:26;22.92;65.18
65854;DHT22;52627;48.838;2.402;2023-08-17T01:39:56;22.88;65.24
65854;DHT22;52627;48.838;2.402;2023-08-17T01:42:26;22.88;65.31
65854;DHT22;52627;48.838;2.402;2023-08-17T01:44:54;22.86;65.33
65854;DHT22;52627;48.838;2.402;2023-08-17T01:47:22;22.86;65.37
65854;DHT22;52627;48.838;2.402;2023-08-17T01:49:50;22.85;65.40
65854;DHT22;52627;48.838;2.402;2023-08-17T01:52:18;22.84;65.40
65854;DHT22;52627;48.838;2.402;2023-08-17T01:54:45;22.82;65.46
65854;DHT22;52627;48.838;2.402;2023-08-17T01:57:13;22.80;65.50
65854;DHT22;52627;48.838;2.402;2023-08-17T01:59:40;22.76;65.54
65854;DHT22;52627;48.838;2.402;2023-08-17T02:02:07;22.75;65.58
65854;DHT22;52627;48.838;2.402;2023-08-17T02:04:35;22.72;65.68
65854;DHT22;52627;48.838;2.402;2023-08-17T02:07:03;22.67;65.77
65854;DHT22;52627;48.838;2.402;2023-08-17T02:09:30;22.62;65.82
65854;DHT22;52627;48.838;2.402;2023-08-17T02:11:58;22.59;65.93
65854;DHT22;52627;48.838;2.402;2023-08-17T02:14:25;22.55;65.99
65854;DHT22;52627;48.838;2.402;2023-08-17T02:16:53;22.53;66.05
65854;DHT22;52627;48.838;2.402;2023-08-17T02:19:20;22.51;66.12
65854;DHT22;52627;48.838;2.402;2023-08-17T02:21:48;22.49;66.18
65854;DHT22;52627;48.838;2.402;2023-08-17T02:24:15;22.46;66.20
65854;DHT22;52627;48.838;2.402;2023-08-17T02:26:42;22.47;66.26
65854;DHT22;52627;48.838;2.402;2023-08-17T02:29:10;22.44;66.45
65854;DHT22;52627;48.838;2.402;2023-08-17T02:31:37;22.40;66.50
65854;DHT22;52627;48.838;2.402;2023-08-17T02:34:05;22.39;66.58
65854;DHT22;52627;48.838;2.402;2023-08-17T02:36:32;22.35;66.72
65854;DHT22;52627;48.838;2.402;2023-08-17T02:39:02;22.33;66.76
65854;DHT22;52627;48.838;2.402;2023-08-17T02:41:30;22.32;66.84
65854;DHT22;52627;48.838;2.402;2023-08-17T02:43:59;22.32;66.97
65854;DHT22;52627;48.838;2.402;2023-08-17T02:46:28;22.31;66.99
65854;DHT22;52627;48.838;2.402;2023-08-17T02:48:55;22.31;67.08
65854;DHT22;52627;48.838;2.402;2023-08-17T02:51:23;22.29;67.17
65854;DHT22;52627;48.838;2.402;2023-08-17T02:53:50;22.27;67.22
65854;DHT22;52627;48.838;2.402;2023-08-17T02:56:18;22.25;67.35
65854;DHT22;52627;48.838;2.402;2023-08-17T02:58:45;22.20;67.43
65854;DHT22;52627;48.838;2.402;2023-08-17T03:01:13;22.17;67.56
65854;DHT22;52627;48.838;2.402;2023-08-17T03:03:40;22.16;67.60
65854;DHT22;52627;48.838;2.402;2023-08-17T03:06:08;22.16;67.67
65854;DHT22;52627;48.838;2.402;2023-08-17T03:08:36;22.15;67.73
65854;DHT22;52627;48.838;2.402;2023-08-17T03:11:03;22.14;67.80
65854;DHT22;52627;48.838;2.402;2023-08-17T03:13:34;22.12;67.88
65854;DHT22;52627;48.838;2.402;2023-08-17T03:16:01;22.12;67.96
65854;DHT22;52627;48.838;2.402;2023-08-17T03:18:29;22.11;68.01
65854;DHT22;52627;48.838;2.402;2023-08-17T03:20:56;22.11;68.04
65854;DHT22;52627;48.838;2.402;2023-08-17T03:23:24;22.10;68.10
65854;DHT22;52627;48.838;2.402;2023-08-17T03:25:52;22.10;68.17
65854;DHT22;52627;48.838;2.402;2023-08-17T03:28:20;22.09;68.25
65854;DHT22;52627;48.838;2.402;2023-08-17T03:30:48;22.07;68.30
65854;DHT22;52627;48.838;2.402;2023-08-17T03:33:15;22.05;68.35
65854;DHT22;52627;48.838;2.402;2023-08-17T03:35:43;22.04;68.41
65854;DHT22;52627;48.838;2.402;2023-08-17T03:38:10;22.02;68.47
65854;DHT22;52627;48.838;2.402;2023-08-17T03:40:38;21.99;68.50
65854;DHT22;52627;48.838;2.402;2023-08-17T03:43:05;21.98;68.57
65854;DHT22;52627;48.838;2.402;2023-08-17T03:45:33;21.98;68.65
65854;DHT22;52627;48.838;2.402;2023-08-17T03:48:00;21.97;68.71
65854;DHT22;52627;48.838;2.402;2023-08-17T03:50:28;21.94;68.78
65854;DHT22;52627;48.838;2.402;2023-08-17T03:52:55;21.91;68.86
65854;DHT22;52627;48.838;2.402;2023-08-17T03:55:23;21.88;68.90
65854;DHT22;52627;48.838;2.402;2023-08-17T03:57:50;21.86;68.97
65854;DHT22;52627;48.838;2.402;2023-08-17T04:00:18;21.84;69.06
65854;DHT22;52627;48.838;2.402;2023-08-17T04:02:46;21.83;69.08
65854;DHT22;52627;48.838;2.402;2023-08-17T04:05:14;21.84;69.12
65854;DHT22;52627;48.838;2.402;2023-08-17T04:07:41;21.85;69.17
65854;DHT22;52627;48.838;2.402;2023-08-17T04:10:09;21.84;69.20
65854;DHT22;52627;48.838;2.402;2023-08-17T04:12:36;21.85;69.23
65854;DHT22;52627;48.838;2.402;2023-08-17T04:15:04;21.83;69.31
65854;DHT22;52627;48.838;2.402;2023-08-17T04:17:32;21.79;69.37
65854;DHT22;52627;48.838;2.402;2023-08-17T04:20:00;21.76;69.45
65854;DHT22;52627;48.838;2.402;2023-08-17T04:22:27;21.72;69.50
65854;DHT22;52627;48.838;2.402;2023-08-17T04:24:55;21.69;69.66
65854;DHT22;52627;48.838;2.402;2023-08-17T04:27:22;21.66;69.70
65854;DHT22;52627;48.838;2.402;2023-08-17T04:29:50;21.60;69.83
65854;DHT22;52627;48.838;2.402;2023-08-17T04:32:18;21.52;69.91
65854;DHT22;52627;48.838;2.402;2023-08-17T04:34:45;21.48;70.03
65854;DHT22;52627;48.838;2.402;2023-08-17T04:37:14;21.42;70.14
65854;DHT22;52627;48.838;2.402;2023-08-17T04:39:42;21.38;70.24
65854;DHT22;52627;48.838;2.402;2023-08-17T04:42:10;21.36;70.31
65854;DHT22;52627;48.838;2.402;2023-08-17T04:44:38;21.34;70.36
65854;DHT22;52627;48.838;2.402;2023-08-17T04:47:05;21.30;70.52
65854;DHT22;52627;48.838;2.402;2023-08-17T04:49:33;21.25;70.62
65854;DHT22;52627;48.838;2.402;2023-08-17T04:52:00;21.22;70.71
65854;DHT22;52627;48.838;2.402;2023-08-17T04:54:28;21.20;70.78
65854;DHT22;52627;48.838;2.402;2023-08-17T04:56:55;21.20;70.80
65854;DHT22;52627;48.838;2.402;2023-08-17T04:59:23;21.20;70.86
65854;DHT22;52627;48.838;2.402;2023-08-17T05:01:50;21.19;70.95
65854;DHT22;52627;48.838;2.402;2023-08-17T05:04:18;21.17;71.06
65854;DHT22;52627;48.838;2.402;2023-08-17T05:06:45;21.15;71.10
65854;DHT22;52627;48.838;2.402;2023-08-17T05:09:13;21.15;71.16
65854;DHT22;52627;48.838;2.402;2023-08-17T05:11:40;21.15;71.21
65854;DHT22;52627;48.838;2.402;2023-08-17T05:14:08;21.17;71.26
65854;DHT22;52627;48.838;2.402;2023-08-17T05:16:36;21.17;71.30
65854;DHT22;52627;48.838;2.402;2023-08-17T05:19:03;21.17;71.34
65854;DHT22;52627;48.838;2.402;2023-08-17T05:21:31;21.20;71.37
65854;DHT22;52627;48.838;2.402;2023-08-17T05:23:58;21.23;71.39
65854;DHT22;52627;48.838;2.402;2023-08-17T05:26:26;21.26;71.41
65854;DHT22;52627;48.838;2.402;2023-08-17T05:28:53;21.26;71.48
65854;DHT22;52627;48.838;2.402;2023-08-17T05:31:20;21.27;71.50
65854;DHT22;52627;48.838;2.402;2023-08-17T05:33:48;21.27;71.58
65854;DHT22;52627;48.838;2.402;2023-08-17T05:36:15;21.27;71.62
65854;DHT22;52627;48.838;2.402;2023-08-17T05:38:43;21.30;71.66
65854;DHT22;52627;48.838;2.402;2023-08-17T05:41:10;21.33;71.69
65854;DHT22;52627;48.838;2.402;2023-08-17T05:43:38;21.35;71.70
65854;DHT22;52627;48.838;2.402;2023-08-17T05:46:05;21.38;71.71
65854;DHT22;52627;48.838;2.402;2023-08-17T05:48:33;21.41;71.71
65854;DHT22;52627;48.838;2.402;2023-08-17T05:51:00;21.43;71.77
65854;DHT22;52627;48.838;2.402;2023-08-17T05:53:28;21.46;71.79
65854;DHT22;52627;48.838;2.402;2023-08-17T05:55:55;21.50;71.80
65854;DHT22;52627;48.838;2.402;2023-08-17T05:58:23;21.53;71.80
65854;DHT22;52627;48.838;2.402;2023-08-17T06:00:51;21.54;71.80
65854;DHT22;52627;48.838;2.402;2023-08-17T06:03:18;21.56;71.80
65854;DHT22;52627;48.838;2.402;2023-08-17T06:05:46;21.59;71.80
65854;DHT22;52627;48.838;2.402;2023-08-17T06:08:13;21.62;71.81
65854;DHT22;52627;48.838;2.402;2023-08-17T06:10:41;21.66;71.81
65854;DHT22;52627;48.838;2.402;2023-08-17T06:13:08;21.71;71.82
65854;DHT22;52627;48.838;2.402;2023-08-17T06:15:35;21.74;71.80
65854;DHT22;52627;48.838;2.402;2023-08-17T06:18:03;21.79;71.76
65854;DHT22;52627;48.838;2.402;2023-08-17T06:20:31;21.83;71.73
65854;DHT22;52627;48.838;2.402;2023-08-17T06:22:59;21.88;71.71
65854;DHT22;52627;48.838;2.402;2023-08-17T06:25:27;21.92;71.70
65854;DHT22;52627;48.838;2.402;2023-08-17T06:27:54;21.96;71.65
65854;DHT22;52627;48.838;2.402;2023-08-17T06:30:22;22.00;71.60
65854;DHT22;52627;48.838;2.402;2023-08-17T06:32:50;22.04;71.60
65854;DHT22;52627;48.838;2.402;2023-08-17T06:35:18;22.11;71.53
65854;DHT22;52627;48.838;2.402;2023-08-17T06:37:46;22.18;71.47
65854;DHT22;52627;48.838;2.402;2023-08-17T06:40:13;22.23;71.40
65854;DHT22;52627;48.838;2.402;2023-08-17T06:42:41;22.27;71.36
65854;DHT22;52627;48.838;2.402;2023-08-17T06:45:08;22.30;71.29
65854;DHT22;52627;48.838;2.402;2023-08-17T06:47:36;22.33;71.26
65854;DHT22;52627;48.838;2.402;2023-08-17T06:50:03;22.41;71.20
65854;DHT22;52627;48.838;2.402;2023-08-17T06:52:31;22.48;71.08
65854;DHT22;52627;48.838;2.402;2023-08-17T06:54:59;22.54;70.97
65854;DHT22;52627;48.838;2.402;2023-08-17T06:57:26;22.61;70.88
65854;DHT22;52627;48.838;2.402;2023-08-17T06:59:54;22.70;70.80
65854;DHT22;52627;48.838;2.402;2023-08-17T07:02:21;22.80;70.67
65854;DHT22;52627;48.838;2.402;2023-08-17T07:04:49;22.93;70.51
65854;DHT22;52627;48.838;2.402;2023-08-17T07:07:16;23.05;70.36
65854;DHT22;52627;48.838;2.402;2023-08-17T07:09:44;23.22;70.23
65854;DHT22;52627;48.838;2.402;2023-08-17T07:12:11;23.42;70.02
65854;DHT22;52627;48.838;2.402;2023-08-17T07:14:39;23.60;69.78
65854;DHT22;52627;48.838;2.402;2023-08-17T07:17:06;23.76;69.46
65854;DHT22;52627;48.838;2.402;2023-08-17T07:19:34;23.98;69.31
65854;DHT22;52627;48.838;2.402;2023-08-17T07:22:21;24.25;69.00
65854;DHT22;52627;48.838;2.402;2023-08-17T07:24:49;24.50;68.64
65854;DHT22;52627;48.838;2.402;2023-08-17T07:27:16;24.71;68.30
65854;DHT22;52627;48.838;2.402;2023-08-17T07:29:44;24.95;67.97
65854;DHT22;52627;48.838;2.402;2023-08-17T07:32:11;25.22;67.56
65854;DHT22;52627;48.838;2.402;2023-08-17T07:34:39;25.48;67.21
65854;DHT22;52627;48.838;2.402;2023-08-17T07:37:06;25.78;66.75
65854;DHT22;52627;48.838;2.402;2023-08-17T07:39:33;26.02;66.21
65854;DHT22;52627;48.838;2.402;2023-08-17T07:42:02;26.31;65.81
65854;DHT22;52627;48.838;2.402;2023-08-17T07:44:30;26.61;65.32
65854;DHT22;52627;48.838;2.402;2023-08-17T07:47:02;26.93;64.72
65854;DHT22;52627;48.838;2.402;2023-08-17T07:49:29;27.22;64.10
65854;DHT22;52627;48.838;2.402;2023-08-17T07:51:59;27.59;63.76
65854;DHT22;52627;48.838;2.402;2023-08-17T07:54:27;28.00;63.24
65854;DHT22;52627;48.838;2.402;2023-08-17T07:56:55;28.42;62.51
65854;DHT22;52627;48.838;2.402;2023-08-17T07:59:22;28.73;61.58
65854;DHT22;52627;48.838;2.402;2023-08-17T08:01:50;29.12;61.25
65854;DHT22;52627;48.838;2.402;2023-08-17T08:04:17;29.56;60.41
65854;DHT22;52627;48.838;2.402;2023-08-17T08:06:45;29.96;59.61
65854;DHT22;52627;48.838;2.402;2023-08-17T08:09:14;30.33;58.79
65854;DHT22;52627;48.838;2.402;2023-08-17T08:11:41;30.65;57.63
65854;DHT22;52627;48.838;2.402;2023-08-17T08:14:08;30.71;56.31
65854;DHT22;52627;48.838;2.402;2023-08-17T08:16:36;30.55;55.38
65854;DHT22;52627;48.838;2.402;2023-08-17T08:19:03;30.48;54.86
65854;DHT22;52627;48.838;2.402;2023-08-17T08:21:31;30.63;54.88
65854;DHT22;52627;48.838;2.402;2023-08-17T08:23:58;30.95;54.14
65854;DHT22;52627;48.838;2.402;2023-08-17T08:26:26;31.37;53.83
65854;DHT22;52627;48.838;2.402;2023-08-17T08:28:53;31.73;52.87
65854;DHT22;52627;48.838;2.402;2023-08-17T08:31:21;31.91;52.40
65854;DHT22;52627;48.838;2.402;2023-08-17T08:33:48;32.16;52.07
65854;DHT22;52627;48.838;2.402;2023-08-17T08:36:15;32.43;50.82
65854;DHT22;52627;48.838;2.402;2023-08-17T08:38:43;32.28;49.77
65854;DHT22;52627;48.838;2.402;2023-08-17T08:41:11;32.10;49.31
65854;DHT22;52627;48.838;2.402;2023-08-17T08:43:39;32.00;49.13
65854;DHT22;52627;48.838;2.402;2023-08-17T08:46:06;32.14;48.89
65854;DHT22;52627;48.838;2.402;2023-08-17T08:48:34;32.43;48.58
65854;DHT22;52627;48.838;2.402;2023-08-17T08:51:03;32.63;47.80
65854;DHT22;52627;48.838;2.402;2023-08-17T08:53:38;32.46;47.22
65854;DHT22;52627;48.838;2.402;2023-08-17T08:56:13;32.12;46.94
65854;DHT22;52627;48.838;2.402;2023-08-17T08:58:46;31.98;47.08
65854;DHT22;52627;48.838;2.402;2023-08-17T09:01:21;31.95;46.97
65854;DHT22;52627;48.838;2.402;2023-08-17T09:03:49;32.15;47.02
65854;DHT22;52627;48.838;2.402;2023-08-17T09:06:17;32.55;46.89
65854;DHT22;52627;48.838;2.402;2023-08-17T09:08:46;32.99;46.53
65854;DHT22;52627;48.838;2.402;2023-08-17T09:11:15;33.30;45.85
65854;DHT22;52627;48.838;2.402;2023-08-17T09:13:43;33.37;45.64
65854;DHT22;52627;48.838;2.402;2023-08-17T09:16:11;33.51;45.44
65854;DHT22;52627;48.838;2.402;2023-08-17T09:18:39;33.73;45.02
65854;DHT22;52627;48.838;2.402;2023-08-17T09:21:06;33.91;44.77
65854;DHT22;52627;48.838;2.402;2023-08-17T09:23:34;34.19;44.56
65854;DHT22;52627;48.838;2.402;2023-08-17T09:26:10;34.51;43.93
65854;DHT22;52627;48.838;2.402;2023-08-17T09:28:38;34.50;43.62
65854;DHT22;52627;48.838;2.402;2023-08-17T09:31:08;34.64;43.27
65854;DHT22;52627;48.838;2.402;2023-08-17T09:33:35;34.81;43.00
65854;DHT22;52627;48.838;2.402;2023-08-17T09:36:03;35.09;42.46
65854;DHT22;52627;48.838;2.402;2023-08-17T09:38:30;35.34;42.03
65854;DHT22;52627;48.838;2.402;2023-08-17T09:40:58;35.61;41.67
65854;DHT22;52627;48.838;2.402;2023-08-17T09:43:26;35.61;40.64
65854;DHT22;52627;48.838;2.402;2023-08-17T09:46:00;34.95;40.60
65854;DHT22;52627;48.838;2.402;2023-08-17T09:48:29;34.81;40.85
65854;DHT22;52627;48.838;2.402;2023-08-17T09:50:59;34.85;40.57
65854;DHT22;52627;48.838;2.402;2023-08-17T09:53:28;34.87;40.31
65854;DHT22;52627;48.838;2.402;2023-08-17T09:55:56;34.96;40.28
65854;DHT22;52627;48.838;2.402;2023-08-17T09:58:24;35.15;39.97
65854;DHT22;52627;48.838;2.402;2023-08-17T10:00:57;35.37;39.91
65854;DHT22;52627;48.838;2.402;2023-08-17T10:03:34;35.58;39.68
65854;DHT22;52627;48.838;2.402;2023-08-17T10:06:04;35.51;39.33
65854;DHT22;52627;48.838;2.402;2023-08-17T10:08:39;35.59;39.48
65854;DHT22;52627;48.838;2.402;2023-08-17T10:11:11;35.83;39.14
65854;DHT22;52627;48.838;2.402;2023-08-17T10:13:43;35.91;38.94
65854;DHT22;52627;48.838;2.402;2023-08-17T10:22:08;36.59;38.23
65854;DHT22;52627;48.838;2.402;2023-08-17T10:24:45;36.83;37.87
65854;DHT22;52627;48.838;2.402;2023-08-17T10:27:13;37.00;37.45
65854;DHT22;52627;48.838;2.402;2023-08-17T10:29:41;37.02;37.25
65854;DHT22;52627;48.838;2.402;2023-08-17T10:32:10;37.20;37.09
65854;DHT22;52627;48.838;2.402;2023-08-17T10:34:43;37.40;36.73
65854;DHT22;52627;48.838;2.402;2023-08-17T10:37:11;37.46;36.34
65854;DHT22;52627;48.838;2.402;2023-08-17T10:39:44;37.29;35.95
65854;DHT22;52627;48.838;2.402;2023-08-17T10:42:14;37.28;35.84
65854;DHT22;52627;48.838;2.402;2023-08-17T10:44:47;37.37;35.44
65854;DHT22;52627;48.838;2.402;2023-08-17T10:47:19;37.44;35.16
65854;DHT22;52627;48.838;2.402;2023-08-17T10:50:05;37.48;35.06
65854;DHT22;52627;48.838;2.402;2023-08-17T10:52:50;37.44;34.75
65854;DHT22;52627;48.838;2.402;2023-08-17T10:55:36;37.18;34.48
65854;DHT22;52627;48.838;2.402;2023-08-17T10:58:12;37.04;34.23
65854;DHT22;52627;48.838;2.402;2023-08-17T11:00:42;36.85;33.66
65854;DHT22;52627;48.838;2.402;2023-08-17T11:03:19;36.40;33.32
65854;DHT22;52627;48.838;2.402;2023-08-17T11:05:52;35.77;33.60
65854;DHT22;52627;48.838;2.402;2023-08-17T11:08:23;35.67;33.95
65854;DHT22;52627;48.838;2.402;2023-08-17T11:11:19;35.91;34.33
65854;DHT22;52627;48.838;2.402;2023-08-17T11:13:48;36.18;34.33
65854;DHT22;52627;48.838;2.402;2023-08-17T11:16:22;36.32;34.23
65854;DHT22;52627;48.838;2.402;2023-08-17T11:18:50;36.38;34.19
65854;DHT22;52627;48.838;2.402;2023-08-17T11:21:19;36.47;34.00
65854;DHT22;52627;48.838;2.402;2023-08-17T11:23:47;36.55;33.64
65854;DHT22;52627;48.838;2.402;2023-08-17T11:26:15;36.59;33.24
65854;DHT22;52627;48.838;2.402;2023-08-17T11:28:44;36.61;32.85
65854;DHT22;52627;48.838;2.402;2023-08-17T11:31:13;36.55;32.34
65854;DHT22;52627;48.838;2.402;2023-08-17T11:33:43;36.28;32.11
65854;DHT22;52627;48.838;2.402;2023-08-17T11:36:14;35.95;31.84
65854;DHT22;52627;48.838;2.402;2023-08-17T11:38:42;35.50;31.44
65854;DHT22;52627;48.838;2.402;2023-08-17T11:41:11;35.24;31.92
65854;DHT22;52627;48.838;2.402;2023-08-17T11:43:42;35.39;32.39
65854;DHT22;52627;48.838;2.402;2023-08-17T11:46:10;35.58;32.70
65854;DHT22;52627;48.838;2.402;2023-08-17T11:48:39;35.69;32.76
65854;DHT22;52627;48.838;2.402;2023-08-17T11:51:07;35.80;32.80
65854;DHT22;52627;48.838;2.402;2023-08-17T11:53:37;35.86;32.83
65854;DHT22;52627;48.838;2.402;2023-08-17T11:56:07;35.87;32.87
65854;DHT22;52627;48.838;2.402;2023-08-17T11:58:40;35.82;32.79
65854;DHT22;52627;48.838;2.402;2023-08-17T12:01:12;35.71;32.55
65854;DHT22;52627;48.838;2.402;2023-08-17T12:03:44;35.50;32.60
65854;DHT22;52627;48.838;2.402;2023-08-17T12:06:12;35.27;32.60
65854;DHT22;52627;48.838;2.402;2023-08-17T12:08:45;35.15;32.87
65854;DHT22;52627;48.838;2.402;2023-08-17T12:11:15;35.17;33.17
65854;DHT22;52627;48.838;2.402;2023-08-17T12:13:50;35.17;33.38
65854;DHT22;52627;48.838;2.402;2023-08-17T12:16:19;35.13;33.11
65854;DHT22;52627;48.838;2.402;2023-08-17T12:18:48;34.92;33.39
65854;DHT22;52627;48.838;2.402;2023-08-17T12:21:19;34.90;33.62
65854;DHT22;52627;48.838;2.402;2023-08-17T12:23:51;34.77;33.91
65854;DHT22;52627;48.838;2.402;2023-08-17T12:26:19;34.84;34.26
65854;DHT22;52627;48.838;2.402;2023-08-17T12:28:50;34.96;34.52
65854;DHT22;52627;48.838;2.402;2023-08-17T12:31:21;35.09;34.60
65854;DHT22;52627;48.838;2.402;2023-08-17T12:33:52;35.22;34.63
65854;DHT22;52627;48.838;2.402;2023-08-17T12:36:20;35.32;34.83
65854;DHT22;52627;48.838;2.402;2023-08-17T12:38:49;35.29;34.80
65854;DHT22;52627;48.838;2.402;2023-08-17T12:41:16;35.26;34.85
65854;DHT22;52627;48.838;2.402;2023-08-17T12:43:45;35.25;34.88
65854;DHT22;52627;48.838;2.402;2023-08-17T12:46:12;35.27;34.74
65854;DHT22;52627;48.838;2.402;2023-08-17T12:48:40;35.31;34.74
65854;DHT22;52627;48.838;2.402;2023-08-17T12:51:08;35.39;34.71
65854;DHT22;52627;48.838;2.402;2023-08-17T12:53:35;35.53;34.69
65854;DHT22;52627;48.838;2.402;2023-08-17T12:56:03;35.71;34.59
65854;DHT22;52627;48.838;2.402;2023-08-17T12:58:31;35.71;34.13
65854;DHT22;52627;48.838;2.402;2023-08-17T13:00:58;35.36;33.98
65854;DHT22;52627;48.838;2.402;2023-08-17T13:03:26;34.88;33.83
65854;DHT22;52627;48.838;2.402;2023-08-17T13:05:53;34.48;34.22
65854;DHT22;52627;48.838;2.402;2023-08-17T13:08:21;34.38;34.54
65854;DHT22;52627;48.838;2.402;2023-08-17T13:10:49;34.50;34.65
65854;DHT22;52627;48.838;2.402;2023-08-17T13:13:17;34.49;34.48
65854;DHT22;52627;48.838;2.402;2023-08-17T13:15:44;34.45;34.67
65854;DHT22;52627;48.838;2.402;2023-08-17T13:18:12;34.56;34.71
65854;DHT22;52627;48.838;2.402;2023-08-17T13:20:39;34.73;34.77
65854;DHT22;52627;48.838;2.402;2023-08-17T13:23:07;34.97;34.67
65854;DHT22;52627;48.838;2.402;2023-08-17T13:25:35;34.94;34.32
65854;DHT22;52627;48.838;2.402;2023-08-17T13:28:02;34.33;34.64
65854;DHT22;52627;48.838;2.402;2023-08-17T13:30:30;34.17;34.86
65854;DHT22;52627;48.838;2.402;2023-08-17T13:32:58;34.10;34.92
65854;DHT22;52627;48.838;2.402;2023-08-17T13:35:25;33.90;35.09
65854;DHT22;52627;48.838;2.402;2023-08-17T13:37:53;33.76;35.28
65854;DHT22;52627;48.838;2.402;2023-08-17T13:40:20;33.43;35.52
65854;DHT22;52627;48.838;2.402;2023-08-17T13:42:48;32.93;35.92
65854;DHT22;52627;48.838;2.402;2023-08-17T13:45:16;32.42;36.09
65854;DHT22;52627;48.838;2.402;2023-08-17T13:47:44;31.94;36.42
65854;DHT22;52627;48.838;2.402;2023-08-17T13:50:11;31.68;36.82
65854;DHT22;52627;48.838;2.402;2023-08-17T13:52:39;31.58;36.98
65854;DHT22;52627;48.838;2.402;2023-08-17T13:55:06;31.53;37.33
65854;DHT22;52627;48.838;2.402;2023-08-17T13:57:35;31.46;37.96
65854;DHT22;52627;48.838;2.402;2023-08-17T14:00:03;31.35;38.20
65854;DHT22;52627;48.838;2.402;2023-08-17T14:02:31;31.31;38.48
65854;DHT22;52627;48.838;2.402;2023-08-17T14:04:59;31.32;38.88
65854;DHT22;52627;48.838;2.402;2023-08-17T14:07:27;31.24;39.39
65854;DHT22;52627;48.838;2.402;2023-08-17T14:09:54;31.27;39.62
65854;DHT22;52627;48.838;2.402;2023-08-17T14:12:36;31.38;39.76
65854;DHT22;52627;48.838;2.402;2023-08-17T14:15:04;31.45;39.78
65854;DHT22;52627;48.838;2.402;2023-08-17T14:17:32;31.42;40.00
65854;DHT22;52627;48.838;2.402;2023-08-17T14:20:00;31.47;40.17
65854;DHT22;52627;48.838;2.402;2023-08-17T14:22:27;31.44;40.42
65854;DHT22;52627;48.838;2.402;2023-08-17T14:24:55;31.33;40.74
65854;DHT22;52627;48.838;2.402;2023-08-17T14:27:23;31.18;40.97
65854;DHT22;52627;48.838;2.402;2023-08-17T14:29:50;30.99;41.20
65854;DHT22;52627;48.838;2.402;2023-08-17T14:32:18;30.90;41.39
65854;DHT22;52627;48.838;2.402;2023-08-17T14:34:45;30.85;41.55
65854;DHT22;52627;48.838;2.402;2023-08-17T14:37:13;30.87;41.66
65854;DHT22;52627;48.838;2.402;2023-08-17T14:39:41;30.89;41.76
65854;DHT22;52627;48.838;2.402;2023-08-17T14:42:08;30.92;41.81
65854;DHT22;52627;48.838;2.402;2023-08-17T14:44:35;30.88;41.90
65854;DHT22;52627;48.838;2.402;2023-08-17T14:47:03;30.93;42.01
65854;DHT22;52627;48.838;2.402;2023-08-17T14:49:31;31.02;41.98
65854;DHT22;52627;48.838;2.402;2023-08-17T14:51:58;30.93;41.98
65854;DHT22;52627;48.838;2.402;2023-08-17T14:54:25;30.88;42.11
65854;DHT22;52627;48.838;2.402;2023-08-17T14:56:53;30.90;42.10
65854;DHT22;52627;48.838;2.402;2023-08-17T14:59:23;30.97;42.20
65854;DHT22;52627;48.838;2.402;2023-08-17T15:01:51;31.02;42.11
65854;DHT22;52627;48.838;2.402;2023-08-17T15:04:20;31.04;41.99
65854;DHT22;52627;48.838;2.402;2023-08-17T15:06:52;30.86;41.83
65854;DHT22;52627;48.838;2.402;2023-08-17T15:09:19;30.71;41.95
65854;DHT22;52627;48.838;2.402;2023-08-17T15:11:47;30.63;42.06
65854;DHT22;52627;48.838;2.402;2023-08-17T15:14:15;30.60;42.13
65854;DHT22;52627;48.838;2.402;2023-08-17T15:16:42;30.66;42.20
65854;DHT22;52627;48.838;2.402;2023-08-17T15:19:10;30.64;42.23
65854;DHT22;52627;48.838;2.402;2023-08-17T15:21:37;30.60;42.33
65854;DHT22;52627;48.838;2.402;2023-08-17T15:24:05;30.51;42.38
65854;DHT22;52627;48.838;2.402;2023-08-17T15:26:32;30.38;42.38
65854;DHT22;52627;48.838;2.402;2023-08-17T15:29:00;30.31;42.38
65854;DHT22;52627;48.838;2.402;2023-08-17T15:31:27;30.27;42.28
65854;DHT22;52627;48.838;2.402;2023-08-17T15:33:55;30.25;42.20
65854;DHT22;52627;48.838;2.402;2023-08-17T15:36:22;30.28;42.26
65854;DHT22;52627;48.838;2.402;2023-08-17T15:38:51;30.33;42.33
65854;DHT22;52627;48.838;2.402;2023-08-17T15:41:18;30.28;42.46
65854;DHT22;52627;48.838;2.402;2023-08-17T15:43:45;30.18;42.59
65854;DHT22;52627;48.838;2.402;2023-08-17T15:46:13;30.18;42.70
65854;DHT22;52627;48.838;2.402;2023-08-17T15:48:41;30.17;42.89
65854;DHT22;52627;48.838;2.402;2023-08-17T15:51:08;30.16;43.04
65854;DHT22;52627;48.838;2.402;2023-08-17T15:53:35;30.22;43.25